createdAt,value
2023-01-25T00:00:30.670Z,200.66667
2023-01-25T00:05:32.479Z,202.82353
2023-01-25T00:10:34.398Z,202.82353
2023-01-25T00:15:36.255Z,193.39271
2023-01-25T00:20:38.204Z,195.42857
2023-01-25T00:25:40.892Z,194.4065
2023-01-25T00:30:42.481Z,187.47826
2023-01-25T00:35:44.210Z,190.4
2023-01-25T00:40:45.787Z,181.83784
2023-01-25T00:45:47.629Z,173.85075
2023-01-25T00:50:49.383Z,182.75969
2023-01-25T00:55:51.115Z,181.83784
2023-01-25T01:00:52.930Z,181.83784
2023-01-25T01:05:55.096Z,181.83784
2023-01-25T01:10:56.856Z,177.33333
2023-01-25T01:15:59.145Z,173.85075
2023-01-25T01:21:00.998Z,175.57895
2023-01-25T01:26:02.958Z,180.01533
2023-01-25T01:31:04.806Z,177.33333
2023-01-25T01:36:06.759Z,175.57895
2023-01-25T01:41:08.197Z,175.57895
2023-01-25T01:46:10.076Z,167.18841
2023-01-25T01:51:12.200Z,172.14815
2023-01-25T01:56:14.820Z,180.01533
2023-01-25T02:01:16.876Z,185.56863
2023-01-25T02:06:18.788Z,187.47826
2023-01-25T02:11:20.492Z,189.41833
2023-01-25T02:16:23.193Z,185.56863
2023-01-25T02:21:25.271Z,182.75969
2023-01-25T02:26:27.240Z,178.22053
2023-01-25T02:31:29.190Z,173.85075
2023-01-25T02:36:31.112Z,172.14815
2023-01-25T02:41:32.900Z,168.81752
2023-01-25T02:46:34.738Z,166.38267
2023-01-25T02:51:36.614Z,163.21708
2023-01-25T02:56:38.689Z,162.43972
2023-01-25T03:01:40.552Z,157.88889
2023-01-25T03:06:42.090Z,154.9589
2023-01-25T03:11:43.778Z,158.63415
2023-01-25T03:16:45.361Z,158.63415
2023-01-25T03:21:46.876Z,154.9589
2023-01-25T03:26:48.512Z,155.68385
2023-01-25T03:31:50.093Z,154.9589
2023-01-25T03:36:52.047Z,156.41379
2023-01-25T03:41:53.999Z,154.9589
2023-01-25T03:46:55.854Z,156.41379
2023-01-25T03:51:57.794Z,153.52381
2023-01-25T03:57:00.076Z,152.81356
2023-01-25T04:02:02.129Z,147.30033
2023-01-25T04:07:05.141Z,152.10811
2023-01-25T04:12:06.817Z,148.65116
2023-01-25T04:17:08.607Z,146.63158
2023-01-25T04:22:10.441Z,143.35275
2023-01-25T04:27:12.598Z,152.10811
2023-01-25T04:32:14.548Z,153.52381
2023-01-25T04:37:16.535Z,155.68385
2023-01-25T04:42:18.331Z,150.71141
2023-01-25T04:47:20.740Z,145.30719
2023-01-25T04:52:22.723Z,145.96721
2023-01-25T04:57:24.856Z,142.07074
2023-01-25T05:02:26.661Z,143.35275
2023-01-25T05:07:28.619Z,140.17834
2023-01-25T05:12:30.458Z,144.65147
2023-01-25T05:17:32.200Z,142.70968
2023-01-25T05:22:34.024Z,144
2023-01-25T05:27:36.104Z,140.80511
2023-01-25T05:32:37.928Z,138.93671
2023-01-25T05:37:40.136Z,139.55556
2023-01-25T05:42:41.928Z,147.97351
2023-01-25T05:47:43.490Z,152.10811
2023-01-25T05:52:45.199Z,148.65116
2023-01-25T05:57:46.868Z,147.97351
2023-01-25T06:02:48.459Z,150.71141
2023-01-25T06:07:50.032Z,149.33333
2023-01-25T06:12:51.673Z,155.68385
2023-01-25T06:17:53.276Z,154.9589
2023-01-25T06:22:54.973Z,160.90141
2023-01-25T06:27:56.987Z,166.38267
2023-01-25T06:32:58.809Z,170.47059
2023-01-25T06:38:00.670Z,164.78853
2023-01-25T06:43:02.485Z,166.38267
2023-01-25T06:48:04.335Z,172.14815
2023-01-25T06:53:06.125Z,182.75969
2023-01-25T06:58:08.495Z,137.10345
2023-01-25T07:03:10.209Z,119.49858
2023-01-25T07:08:12.047Z,128.43114
2023-01-25T07:13:13.693Z,120.5043
2023-01-25T07:18:16.540Z,124.64516
2023-01-25T07:23:18.655Z,116.06704
2023-01-25T07:28:20.660Z,114.63712
2023-01-25T07:33:22.463Z,114.63712
2023-01-25T07:38:24.205Z,123.06977
2023-01-25T07:43:25.733Z,114.63712
2023-01-25T07:48:27.582Z,119.49858
2023-01-25T07:53:29.394Z,153.52381
2023-01-25T07:58:31.364Z,172.14815
2023-01-25T08:03:33.110Z,140.17834
2023-01-25T08:08:34.645Z,138.93671
2023-01-25T08:13:36.301Z,140.17834
2023-01-25T08:18:37.838Z,155.68385
2023-01-25T08:23:39.412Z,125.71091
2023-01-25T08:28:41.049Z,155.68385
2023-01-25T08:33:42.865Z,137.10345
2023-01-25T08:38:44.495Z,150.71141
2023-01-25T08:43:45.931Z,169.64103
2023-01-25T08:48:47.445Z,116.06704
2023-01-25T08:53:49.255Z,120.5043
2023-01-25T08:58:51.407Z,122.03468
2023-01-25T09:03:53.261Z,151.40741
2023-01-25T09:08:54.868Z,192.3871
2023-01-25T09:13:56.949Z,161.66784
2023-01-25T09:18:58.707Z,192.3871
2023-01-25T09:24:08.243Z,186.51969
2023-01-25T09:29:10.488Z,196.45902
2023-01-25T09:34:12.433Z,212.99563
2023-01-25T09:39:14.696Z,210.66667
2023-01-25T09:44:16.816Z,205.01695
2023-01-25T09:49:18.710Z,230.51163
2023-01-25T09:54:20.679Z,234.56604
2023-01-25T09:59:22.733Z,134.12346
2023-01-25T10:04:24.497Z,182.75969
2023-01-25T10:09:26.424Z,211.82609
2023-01-25T10:14:28.294Z,231.85047
2023-01-25T10:19:30.057Z,255.11111
2023-01-25T10:24:31.856Z,202.82353
2023-01-25T10:29:34.655Z,227.87097
2023-01-25T10:34:44.043Z,178.22053
2023-01-25T10:39:56.682Z,165.58273
2023-01-25T10:44:58.783Z,241.58454
2023-01-25T10:50:00.592Z,240.15385
2023-01-25T10:55:02.472Z,294
2023-01-25T11:00:04.716Z,200.66667
2023-01-25T11:05:07.316Z,150.71141
2023-01-25T11:10:09.895Z,256.69036
2023-01-25T11:15:12.012Z,290.06742
2023-01-25T11:20:13.681Z,252
2023-01-25T11:25:15.663Z,282.46154
2023-01-25T11:30:17.728Z,288.13408
2023-01-25T11:35:19.569Z,227.87097
2023-01-25T11:40:21.379Z,219
2023-01-25T11:45:23.428Z,233.20188
2023-01-25T11:50:25.154Z,247.44828
2023-01-25T11:55:26.868Z,263.17098
2023-01-25T12:00:29.178Z,286.22222
2023-01-25T12:05:30.873Z,247.44828
2023-01-25T12:10:32.721Z,321.91411
2023-01-25T12:15:34.249Z,282.46154
2023-01-25T12:20:35.958Z,217.77778
2023-01-25T12:25:37.483Z,234.56604
2023-01-25T12:30:39.629Z,222.73303
2023-01-25T12:35:41.081Z,194.4065
2023-01-25T12:40:42.570Z,268.21053
2023-01-25T12:45:44.220Z,308.49704
2023-01-25T12:50:45.663Z,296
2023-01-25T12:55:49.171Z,319.60976
2023-01-25T13:00:53.519Z,258.28571
2023-01-25T13:05:57.261Z,240.15385
2023-01-25T13:11:01.115Z,256.69036
2023-01-25T13:16:04.615Z,240.15385
2023-01-25T13:21:06.938Z,235.94313
2023-01-25T13:26:08.680Z,227.87097
2023-01-25T13:31:11.617Z,226.56881
2023-01-25T13:36:13.404Z,189.41833
2023-01-25T13:41:15.101Z,253.54774
2023-01-25T13:46:16.782Z,240.15385
2023-01-25T13:51:18.603Z,263.17098
2023-01-25T13:56:20.300Z,271.65957
2023-01-25T14:01:22.300Z,235.94313
2023-01-25T14:06:23.987Z,247.44828
2023-01-25T14:11:25.854Z,256.69036
2023-01-25T14:16:27.794Z,174.71161
2023-01-25T14:21:29.557Z,159.38462
2023-01-25T14:26:31.459Z,259.89744
2023-01-25T14:31:33.526Z,268.21053
2023-01-25T14:36:35.383Z,234.56604
2023-01-25T14:41:38.785Z,298.02299
2023-01-25T14:46:41.862Z,315.08434
2023-01-25T14:51:43.492Z,290.06742
2023-01-25T14:56:45.257Z,278.78261
2023-01-25T15:01:47.390Z,298.02299
2023-01-25T15:06:48.902Z,344
2023-01-25T15:11:50.582Z,192.3871
2023-01-25T15:16:52.206Z,280.61202
2023-01-25T15:21:53.695Z,298.02299
2023-01-25T15:26:55.495Z,304.23392
2023-01-25T15:31:57.450Z,248.9505
2023-01-25T15:36:59.162Z,198.54545
2023-01-25T15:42:00.819Z,200.66667
2023-01-25T15:47:02.703Z,203.91561
2023-01-25T15:52:04.469Z,190.4
2023-01-25T15:57:06.149Z,194.4065
2023-01-25T16:02:08.176Z,195.42857
2023-01-25T16:07:09.976Z,190.4
2023-01-25T16:12:11.657Z,189.41833
2023-01-25T16:17:13.473Z,193.39271
2023-01-25T16:22:15.228Z,195.42857
2023-01-25T16:27:17.117Z,187.47826
2023-01-25T16:32:19.056Z,187.47826
2023-01-25T16:37:20.881Z,184.625
2023-01-25T16:42:23.108Z,184.625
2023-01-25T16:47:26.486Z,179.1145
2023-01-25T16:52:29.609Z,174.71161
2023-01-25T16:57:31.560Z,178.22053
2023-01-25T17:02:33.597Z,176.45283
2023-01-25T17:07:35.438Z,174.71161
2023-01-25T17:12:37.288Z,164
2023-01-25T17:17:39.219Z,164
2023-01-25T17:22:41.369Z,159.38462
2023-01-25T17:27:43.288Z,154.23891
2023-01-25T17:32:45.652Z,164
2023-01-25T17:37:47.818Z,159.38462
2023-01-25T17:42:49.618Z,159.38462
2023-01-25T17:47:51.645Z,159.38462
2023-01-25T17:52:53.163Z,160.90141
2023-01-25T17:57:54.784Z,162.43972
2023-01-25T18:02:57.488Z,163.21708
2023-01-25T18:07:59.341Z,164
2023-01-25T18:13:04.827Z,164.78853
2023-01-25T18:18:07.275Z,161.66784
2023-01-25T18:23:09.942Z,160.90141
2023-01-25T18:28:12.072Z,164
2023-01-25T18:33:14.923Z,161.66784
2023-01-25T18:38:17.559Z,157.88889
2023-01-25T18:43:20.494Z,162.43972
2023-01-25T18:48:23.309Z,159.38462
2023-01-25T18:53:26.688Z,162.43972
2023-01-25T18:58:29.724Z,157.88889
2023-01-25T19:03:33.361Z,154.9589
2023-01-25T19:08:36.463Z,153.52381
2023-01-25T19:13:39.294Z,154.23891
2023-01-25T19:18:42.157Z,152.81356
2023-01-25T19:23:45.214Z,150.02007
2023-01-25T19:28:48.232Z,152.81356
2023-01-25T19:33:51.781Z,152.10811
2023-01-25T19:38:54.728Z,150.71141
2023-01-25T19:43:57.863Z,148.65116
2023-01-25T19:49:00.933Z,150.71141
2023-01-25T19:54:04.257Z,151.40741
2023-01-25T19:59:07.207Z,152.81356
2023-01-25T20:04:10.561Z,153.52381
2023-01-25T20:09:13.421Z,147.30033
2023-01-25T20:14:16.592Z,146.63158
2023-01-25T20:19:19.233Z,147.30033
2023-01-25T20:24:21.894Z,147.97351
2023-01-25T20:29:24.569Z,145.30719
2023-01-25T20:34:27.318Z,148.65116
2023-01-25T20:39:29.606Z,144.65147
2023-01-25T20:44:31.989Z,144.65147
2023-01-25T20:49:33.936Z,145.96721
2023-01-25T20:54:36.139Z,142.07074
2023-01-25T20:59:38.214Z,141.4359
2023-01-25T21:04:40.484Z,144
2023-01-25T21:09:43.054Z,141.4359
2023-01-25T21:14:44.964Z,141.4359
2023-01-25T21:19:46.450Z,144
2023-01-25T21:24:47.941Z,143.35275
2023-01-25T21:29:49.539Z,144
2023-01-25T21:34:51.218Z,142.70968
2023-01-25T21:39:52.641Z,142.70968
2023-01-25T21:44:54.195Z,140.80511
2023-01-25T21:49:55.785Z,140.17834
2023-01-25T21:54:57.294Z,139.55556
2023-01-25T21:59:58.820Z,137.71069
2023-01-25T22:05:00.620Z,139.55556
2023-01-25T22:10:02.295Z,139.55556
2023-01-25T22:15:03.957Z,138.32177
2023-01-25T22:20:05.673Z,138.32177
2023-01-25T22:25:07.313Z,138.32177
2023-01-25T22:30:09.517Z,136.5
2023-01-25T22:35:11.675Z,137.10345
2023-01-25T22:40:13.598Z,138.32177
2023-01-25T22:45:15.555Z,138.93671
2023-01-25T22:50:17.638Z,138.32177
2023-01-25T22:55:19.757Z,135.30435
2023-01-25T23:00:21.425Z,134.71207
2023-01-25T23:05:23.432Z,132.3792
2023-01-25T23:10:25.297Z,132.95706
2023-01-25T23:15:27.177Z,134.12346
2023-01-25T23:20:29.068Z,132.95706
2023-01-25T23:25:30.815Z,132.95706
2023-01-25T23:30:32.753Z,133.53846
2023-01-25T23:35:34.617Z,132.3792
2023-01-25T23:40:36.189Z,133.53846
2023-01-25T23:45:37.955Z,131.80488
2023-01-25T23:50:39.474Z,133.53846
2023-01-25T23:55:41.014Z,136.5
